sensor_id;sensor_type;location;lat;lon;timestamp;temperature;humidity
59660;DHT22;45534;52.690;6.268;2024-01-06T00:01:03;3.40;99.90
59660;DHT22;45534;52.690;6.268;2024-01-06T00:03:29;3.40;99.90
59660;DHT22;45534;52.690;6.268;2024-01-06T00:05:55;3.40;99.90
59660;DHT22;45534;52.690;6.268;2024-01-06T00:08:20;3.40;99.90
59660;DHT22;45534;52.690;6.268;2024-01-06T00:10:46;3.40;99.90
59660;DHT22;45534;52.690;6.268;2024-01-06T00:13:12;3.40;99.90
59660;DHT22;45534;52.690;6.268;2024-01-06T00:15:37;3.40;99.90
59660;DHT22;45534;52.690;6.268;2024-01-06T00:18:03;3.40;99.90
59660;DHT22;45534;52.690;6.268;2024-01-06T00:20:29;3.40;99.90
59660;DHT22;45534;52.690;6.268;2024-01-06T00:22:54;3.40;99.90
59660;DHT22;45534;52.690;6.268;2024-01-06T00:25:22;3.40;99.90
59660;DHT22;45534;52.690;6.268;2024-01-06T00:27:47;3.40;99.90
59660;DHT22;45534;52.690;6.268;2024-01-06T00:30:14;3.40;99.90
59660;DHT22;45534;52.690;6.268;2024-01-06T00:32:39;3.40;99.90
59660;DHT22;45534;52.690;6.268;2024-01-06T00:35:05;3.40;99.90
59660;DHT22;45534;52.690;6.268;2024-01-06T00:37:31;3.40;99.90
59660;DHT22;45534;52.690;6.268;2024-01-06T00:39:57;3.30;99.90
59660;DHT22;45534;52.690;6.268;2024-01-06T00:42:22;3.30;99.90
59660;DHT22;45534;52.690;6.268;2024-01-06T00:44:48;3.30;99.90
59660;DHT22;45534;52.690;6.268;2024-01-06T00:47:14;3.20;99.90
59660;DHT22;45534;52.690;6.268;2024-01-06T00:49:39;3.20;99.90
59660;DHT22;45534;52.690;6.268;2024-01-06T00:52:05;3.10;99.90
59660;DHT22;45534;52.690;6.268;2024-01-06T00:54:31;3.10;99.90
59660;DHT22;45534;52.690;6.268;2024-01-06T00:56:57;3.10;99.90
59660;DHT22;45534;52.690;6.268;2024-01-06T00:59:22;3.10;99.90
59660;DHT22;45534;52.690;6.268;2024-01-06T01:01:48;3.10;99.90
59660;DHT22;45534;52.690;6.268;2024-01-06T01:04:14;3.00;99.90
59660;DHT22;45534;52.690;6.268;2024-01-06T01:06:39;3.00;99.90
59660;DHT22;45534;52.690;6.268;2024-01-06T01:09:05;3.00;99.90
59660;DHT22;45534;52.690;6.268;2024-01-06T01:11:31;3.00;99.90
59660;DHT22;45534;52.690;6.268;2024-01-06T01:13:56;3.00;99.90
59660;DHT22;45534;52.690;6.268;2024-01-06T01:16:22;3.00;99.90
59660;DHT22;45534;52.690;6.268;2024-01-06T01:18:48;3.00;99.90
59660;DHT22;45534;52.690;6.268;2024-01-06T01:21:14;3.00;99.90
59660;DHT22;45534;52.690;6.268;2024-01-06T01:23:40;3.00;99.90
59660;DHT22;45534;52.690;6.268;2024-01-06T01:26:06;3.00;99.90
59660;DHT22;45534;52.690;6.268;2024-01-06T01:28:32;2.90;99.90
59660;DHT22;45534;52.690;6.268;2024-01-06T01:30:57;2.90;99.90
59660;DHT22;45534;52.690;6.268;2024-01-06T01:33:23;2.90;99.90
59660;DHT22;45534;52.690;6.268;2024-01-06T01:35:49;2.90;99.90
59660;DHT22;45534;52.690;6.268;2024-01-06T01:38:15;2.80;99.90
59660;DHT22;45534;52.690;6.268;2024-01-06T01:40:40;2.80;99.90
59660;DHT22;45534;52.690;6.268;2024-01-06T01:43:16;2.80;99.90
59660;DHT22;45534;52.690;6.268;2024-01-06T01:45:41;2.80;99.90
59660;DHT22;45534;52.690;6.268;2024-01-06T01:48:08;2.80;99.90
59660;DHT22;45534;52.690;6.268;2024-01-06T01:50:34;2.70;99.90
59660;DHT22;45534;52.690;6.268;2024-01-06T01:53:00;2.70;99.90
59660;DHT22;45534;52.690;6.268;2024-01-06T01:55:26;2.70;99.90
59660;DHT22;45534;52.690;6.268;2024-01-06T01:57:52;2.70;99.90
59660;DHT22;45534;52.690;6.268;2024-01-06T02:00:18;2.70;99.90
59660;DHT22;45534;52.690;6.268;2024-01-06T02:02:44;2.70;99.90
59660;DHT22;45534;52.690;6.268;2024-01-06T02:05:09;2.70;99.90
59660;DHT22;45534;52.690;6.268;2024-01-06T02:07:35;2.60;99.90
59660;DHT22;45534;52.690;6.268;2024-01-06T02:10:01;2.60;99.90
59660;DHT22;45534;52.690;6.268;2024-01-06T02:12:26;2.60;99.90
59660;DHT22;45534;52.690;6.268;2024-01-06T02:14:52;2.60;99.90
59660;DHT22;45534;52.690;6.268;2024-01-06T02:17:18;2.60;99.90
59660;DHT22;45534;52.690;6.268;2024-01-06T02:19:43;2.60;99.90
59660;DHT22;45534;52.690;6.268;2024-01-06T02:22:09;2.60;99.90
59660;DHT22;45534;52.690;6.268;2024-01-06T02:24:35;2.60;99.90
59660;DHT22;45534;52.690;6.268;2024-01-06T02:27:00;2.50;99.90
59660;DHT22;45534;52.690;6.268;2024-01-06T02:29:26;2.60;99.90
59660;DHT22;45534;52.690;6.268;2024-01-06T02:31:52;2.60;99.90
59660;DHT22;45534;52.690;6.268;2024-01-06T02:34:17;2.50;99.90
59660;DHT22;45534;52.690;6.268;2024-01-06T02:36:43;2.50;99.90
59660;DHT22;45534;52.690;6.268;2024-01-06T02:39:09;2.50;99.90
59660;DHT22;45534;52.690;6.268;2024-01-06T02:41:34;2.40;99.90
59660;DHT22;45534;52.690;6.268;2024-01-06T02:44:00;2.40;99.90
59660;DHT22;45534;52.690;6.268;2024-01-06T02:46:28;2.50;99.90
59660;DHT22;45534;52.690;6.268;2024-01-06T02:48:53;2.50;99.90
59660;DHT22;45534;52.690;6.268;2024-01-06T02:51:19;2.50;99.90
59660;DHT22;45534;52.690;6.268;2024-01-06T02:53:45;2.50;99.90
59660;DHT22;45534;52.690;6.268;2024-01-06T02:56:11;2.40;99.90
59660;DHT22;45534;52.690;6.268;2024-01-06T02:58:37;2.40;99.90
59660;DHT22;45534;52.690;6.268;2024-01-06T03:01:03;2.40;99.90
59660;DHT22;45534;52.690;6.268;2024-01-06T03:03:28;2.40;99.90
59660;DHT22;45534;52.690;6.268;2024-01-06T03:05:54;2.40;99.90
59660;DHT22;45534;52.690;6.268;2024-01-06T03:08:19;2.30;99.90
59660;DHT22;45534;52.690;6.268;2024-01-06T03:10:45;2.40;99.90
59660;DHT22;45534;52.690;6.268;2024-01-06T03:13:11;2.30;99.90
59660;DHT22;45534;52.690;6.268;2024-01-06T03:15:36;2.30;99.90
59660;DHT22;45534;52.690;6.268;2024-01-06T03:18:02;2.30;99.90
59660;DHT22;45534;52.690;6.268;2024-01-06T03:20:28;2.30;99.90
59660;DHT22;45534;52.690;6.268;2024-01-06T03:22:54;2.30;99.90
59660;DHT22;45534;52.690;6.268;2024-01-06T03:25:19;2.30;99.90
59660;DHT22;45534;52.690;6.268;2024-01-06T03:27:45;2.30;99.90
59660;DHT22;45534;52.690;6.268;2024-01-06T03:30:11;2.20;99.90
59660;DHT22;45534;52.690;6.268;2024-01-06T03:32:37;2.30;99.90
59660;DHT22;45534;52.690;6.268;2024-01-06T03:35:03;2.30;99.90
59660;DHT22;45534;52.690;6.268;2024-01-06T03:37:29;2.30;99.90
59660;DHT22;45534;52.690;6.268;2024-01-06T03:39:54;2.30;99.90
59660;DHT22;45534;52.690;6.268;2024-01-06T03:42:20;2.30;99.90
59660;DHT22;45534;52.690;6.268;2024-01-06T03:44:46;2.30;99.90
59660;DHT22;45534;52.690;6.268;2024-01-06T03:47:12;2.30;99.90
59660;DHT22;45534;52.690;6.268;2024-01-06T03:49:37;2.30;99.90
59660;DHT22;45534;52.690;6.268;2024-01-06T03:52:03;2.30;99.90
59660;DHT22;45534;52.690;6.268;2024-01-06T03:54:29;2.30;99.90
59660;DHT22;45534;52.690;6.268;2024-01-06T03:56:54;2.30;99.90
59660;DHT22;45534;52.690;6.268;2024-01-06T03:59:20;2.20;99.90
59660;DHT22;45534;52.690;6.268;2024-01-06T04:01:46;2.20;99.90
59660;DHT22;45534;52.690;6.268;2024-01-06T04:04:11;2.20;99.90
59660;DHT22;45534;52.690;6.268;2024-01-06T04:06:37;2.20;99.90
59660;DHT22;45534;52.690;6.268;2024-01-06T04:09:02;2.10;99.90
59660;DHT22;45534;52.690;6.268;2024-01-06T04:11:28;2.10;99.90
59660;DHT22;45534;52.690;6.268;2024-01-06T04:13:54;2.10;99.90
59660;DHT22;45534;52.690;6.268;2024-01-06T04:16:20;2.10;99.90
59660;DHT22;45534;52.690;6.268;2024-01-06T04:18:45;2.00;99.90
59660;DHT22;45534;52.690;6.268;2024-01-06T04:21:11;2.10;99.90
59660;DHT22;45534;52.690;6.268;2024-01-06T04:23:37;2.10;99.90
59660;DHT22;45534;52.690;6.268;2024-01-06T04:26:03;2.10;99.90
59660;DHT22;45534;52.690;6.268;2024-01-06T04:28:30;2.10;99.90
59660;DHT22;45534;52.690;6.268;2024-01-06T04:30:56;2.10;99.90
59660;DHT22;45534;52.690;6.268;2024-01-06T04:33:21;2.10;99.90
59660;DHT22;45534;52.690;6.268;2024-01-06T04:35:47;2.10;99.90
59660;DHT22;45534;52.690;6.268;2024-01-06T04:38:13;2.10;99.90
59660;DHT22;45534;52.690;6.268;2024-01-06T04:40:38;2.10;99.90
59660;DHT22;45534;52.690;6.268;2024-01-06T04:43:04;2.10;99.90
59660;DHT22;45534;52.690;6.268;2024-01-06T04:45:30;2.10;99.90
59660;DHT22;45534;52.690;6.268;2024-01-06T04:47:55;2.00;99.90
59660;DHT22;45534;52.690;6.268;2024-01-06T04:50:21;2.00;99.90
59660;DHT22;45534;52.690;6.268;2024-01-06T04:52:47;2.00;99.90
59660;DHT22;45534;52.690;6.268;2024-01-06T04:55:13;2.00;99.90
59660;DHT22;45534;52.690;6.268;2024-01-06T04:57:38;1.90;99.90
59660;DHT22;45534;52.690;6.268;2024-01-06T05:00:05;2.00;99.90
59660;DHT22;45534;52.690;6.268;2024-01-06T05:02:30;2.00;99.90
59660;DHT22;45534;52.690;6.268;2024-01-06T05:04:56;1.90;99.90
59660;DHT22;45534;52.690;6.268;2024-01-06T05:07:22;1.90;99.90
59660;DHT22;45534;52.690;6.268;2024-01-06T05:09:48;1.90;99.90
59660;DHT22;45534;52.690;6.268;2024-01-06T05:12:14;1.90;99.90
59660;DHT22;45534;52.690;6.268;2024-01-06T05:14:39;1.90;99.90
59660;DHT22;45534;52.690;6.268;2024-01-06T05:17:05;1.90;99.90
59660;DHT22;45534;52.690;6.268;2024-01-06T05:19:31;1.90;99.90
59660;DHT22;45534;52.690;6.268;2024-01-06T05:21:57;1.90;99.90
59660;DHT22;45534;52.690;6.268;2024-01-06T05:24:23;1.80;99.90
59660;DHT22;45534;52.690;6.268;2024-01-06T05:26:49;1.80;99.90
59660;DHT22;45534;52.690;6.268;2024-01-06T05:29:14;1.90;99.90
59660;DHT22;45534;52.690;6.268;2024-01-06T05:31:40;1.80;99.90
59660;DHT22;45534;52.690;6.268;2024-01-06T05:34:06;1.80;99.90
59660;DHT22;45534;52.690;6.268;2024-01-06T05:36:32;1.80;99.90
59660;DHT22;45534;52.690;6.268;2024-01-06T05:38:57;1.80;99.90
59660;DHT22;45534;52.690;6.268;2024-01-06T05:41:24;1.80;99.90
59660;DHT22;45534;52.690;6.268;2024-01-06T05:43:50;1.80;99.90
59660;DHT22;45534;52.690;6.268;2024-01-06T05:46:25;1.70;99.90
59660;DHT22;45534;52.690;6.268;2024-01-06T05:48:50;1.70;99.90
59660;DHT22;45534;52.690;6.268;2024-01-06T05:51:16;1.70;99.90
59660;DHT22;45534;52.690;6.268;2024-01-06T05:53:42;1.70;99.90
59660;DHT22;45534;52.690;6.268;2024-01-06T05:56:07;1.80;99.90
59660;DHT22;45534;52.690;6.268;2024-01-06T05:58:34;1.80;99.90
59660;DHT22;45534;52.690;6.268;2024-01-06T06:01:00;1.80;99.90
59660;DHT22;45534;52.690;6.268;2024-01-06T06:03:26;1.70;99.90
59660;DHT22;45534;52.690;6.268;2024-01-06T06:05:52;1.80;99.90
59660;DHT22;45534;52.690;6.268;2024-01-06T06:08:18;1.70;99.90
59660;DHT22;45534;52.690;6.268;2024-01-06T06:10:44;1.70;99.90
59660;DHT22;45534;52.690;6.268;2024-01-06T06:13:27;1.60;99.90
59660;DHT22;45534;52.690;6.268;2024-01-06T06:15:52;1.60;99.90
59660;DHT22;45534;52.690;6.268;2024-01-06T06:18:18;1.60;99.90
59660;DHT22;45534;52.690;6.268;2024-01-06T06:20:44;1.60;99.90
59660;DHT22;45534;52.690;6.268;2024-01-06T06:23:10;1.70;99.90
59660;DHT22;45534;52.690;6.268;2024-01-06T06:25:38;1.60;99.90
59660;DHT22;45534;52.690;6.268;2024-01-06T06:28:04;1.60;99.90
59660;DHT22;45534;52.690;6.268;2024-01-06T06:30:29;1.60;99.90
59660;DHT22;45534;52.690;6.268;2024-01-06T06:32:55;1.60;99.90
59660;DHT22;45534;52.690;6.268;2024-01-06T06:35:22;1.60;99.90
59660;DHT22;45534;52.690;6.268;2024-01-06T06:37:48;1.60;99.90
59660;DHT22;45534;52.690;6.268;2024-01-06T06:40:15;1.60;99.90
59660;DHT22;45534;52.690;6.268;2024-01-06T06:42:41;1.70;99.90
59660;DHT22;45534;52.690;6.268;2024-01-06T06:45:07;1.60;99.90
59660;DHT22;45534;52.690;6.268;2024-01-06T06:47:32;1.60;99.90
59660;DHT22;45534;52.690;6.268;2024-01-06T06:49:58;1.60;99.90
59660;DHT22;45534;52.690;6.268;2024-01-06T06:52:24;1.60;99.90
59660;DHT22;45534;52.690;6.268;2024-01-06T06:54:49;1.60;99.90
59660;DHT22;45534;52.690;6.268;2024-01-06T06:57:17;1.60;99.90
59660;DHT22;45534;52.690;6.268;2024-01-06T06:59:43;1.60;99.90
59660;DHT22;45534;52.690;6.268;2024-01-06T07:02:08;1.60;99.90
59660;DHT22;45534;52.690;6.268;2024-01-06T07:04:34;1.60;99.90
59660;DHT22;45534;52.690;6.268;2024-01-06T07:07:00;1.60;99.90
59660;DHT22;45534;52.690;6.268;2024-01-06T07:09:26;1.60;99.90
59660;DHT22;45534;52.690;6.268;2024-01-06T07:11:51;1.60;99.90
59660;DHT22;45534;52.690;6.268;2024-01-06T07:14:17;1.60;99.90
59660;DHT22;45534;52.690;6.268;2024-01-06T07:16:43;1.60;99.90
59660;DHT22;45534;52.690;6.268;2024-01-06T07:19:08;1.60;99.90
59660;DHT22;45534;52.690;6.268;2024-01-06T07:21:34;1.60;99.90
59660;DHT22;45534;52.690;6.268;2024-01-06T07:24:00;1.60;99.90
59660;DHT22;45534;52.690;6.268;2024-01-06T07:26:26;1.60;99.90
59660;DHT22;45534;52.690;6.268;2024-01-06T07:28:53;1.60;99.90
59660;DHT22;45534;52.690;6.268;2024-01-06T07:31:18;1.60;99.90
59660;DHT22;45534;52.690;6.268;2024-01-06T07:33:44;1.60;99.90
59660;DHT22;45534;52.690;6.268;2024-01-06T07:36:10;1.60;99.90
59660;DHT22;45534;52.690;6.268;2024-01-06T07:38:36;1.60;99.90
59660;DHT22;45534;52.690;6.268;2024-01-06T07:41:02;1.60;99.90
59660;DHT22;45534;52.690;6.268;2024-01-06T07:43:30;1.60;99.90
59660;DHT22;45534;52.690;6.268;2024-01-06T07:45:56;1.60;99.90
59660;DHT22;45534;52.690;6.268;2024-01-06T07:48:22;1.60;99.90
59660;DHT22;45534;52.690;6.268;2024-01-06T07:50:47;1.60;99.90
59660;DHT22;45534;52.690;6.268;2024-01-06T07:53:13;1.60;99.90
59660;DHT22;45534;52.690;6.268;2024-01-06T07:55:42;1.60;99.90
59660;DHT22;45534;52.690;6.268;2024-01-06T07:58:08;1.60;99.90
59660;DHT22;45534;52.690;6.268;2024-01-06T08:00:34;1.70;99.90
59660;DHT22;45534;52.690;6.268;2024-01-06T08:03:00;1.70;99.90
59660;DHT22;45534;52.690;6.268;2024-01-06T08:05:25;1.70;99.90
59660;DHT22;45534;52.690;6.268;2024-01-06T08:07:52;1.60;99.90
59660;DHT22;45534;52.690;6.268;2024-01-06T08:10:17;1.70;99.90
59660;DHT22;45534;52.690;6.268;2024-01-06T08:12:43;1.60;99.90
59660;DHT22;45534;52.690;6.268;2024-01-06T08:15:09;1.70;99.90
59660;DHT22;45534;52.690;6.268;2024-01-06T08:17:36;1.70;99.90
59660;DHT22;45534;52.690;6.268;2024-01-06T08:20:02;1.70;99.90
59660;DHT22;45534;52.690;6.268;2024-01-06T08:22:29;1.60;99.90
59660;DHT22;45534;52.690;6.268;2024-01-06T08:24:54;1.70;99.90
59660;DHT22;45534;52.690;6.268;2024-01-06T08:27:20;1.70;99.90
59660;DHT22;45534;52.690;6.268;2024-01-06T08:29:47;1.70;99.90
59660;DHT22;45534;52.690;6.268;2024-01-06T08:32:12;1.70;99.90
59660;DHT22;45534;52.690;6.268;2024-01-06T08:34:40;1.70;99.90
59660;DHT22;45534;52.690;6.268;2024-01-06T08:37:06;1.70;99.90
59660;DHT22;45534;52.690;6.268;2024-01-06T08:39:31;1.70;99.90
59660;DHT22;45534;52.690;6.268;2024-01-06T08:41:57;1.80;99.90
59660;DHT22;45534;52.690;6.268;2024-01-06T08:44:24;1.70;99.90
59660;DHT22;45534;52.690;6.268;2024-01-06T08:46:49;1.80;99.90
59660;DHT22;45534;52.690;6.268;2024-01-06T08:49:15;1.80;99.90
59660;DHT22;45534;52.690;6.268;2024-01-06T08:51:41;1.80;99.90
59660;DHT22;45534;52.690;6.268;2024-01-06T08:54:07;1.80;99.90
59660;DHT22;45534;52.690;6.268;2024-01-06T08:56:34;1.80;99.90
59660;DHT22;45534;52.690;6.268;2024-01-06T08:58:59;1.80;99.90
59660;DHT22;45534;52.690;6.268;2024-01-06T09:01:25;1.90;99.90
59660;DHT22;45534;52.690;6.268;2024-01-06T09:03:51;1.90;99.90
59660;DHT22;45534;52.690;6.268;2024-01-06T09:06:16;1.80;99.90
59660;DHT22;45534;52.690;6.268;2024-01-06T09:08:42;1.80;99.90
59660;DHT22;45534;52.690;6.268;2024-01-06T09:11:08;1.80;99.90
59660;DHT22;45534;52.690;6.268;2024-01-06T09:13:33;1.90;99.90
59660;DHT22;45534;52.690;6.268;2024-01-06T09:15:59;1.90;99.90
59660;DHT22;45534;52.690;6.268;2024-01-06T09:18:26;1.90;99.90
59660;DHT22;45534;52.690;6.268;2024-01-06T09:20:52;1.90;99.90
59660;DHT22;45534;52.690;6.268;2024-01-06T09:23:20;1.90;99.90
59660;DHT22;45534;52.690;6.268;2024-01-06T09:25:46;1.90;99.90
59660;DHT22;45534;52.690;6.268;2024-01-06T09:28:15;1.90;99.90
59660;DHT22;45534;52.690;6.268;2024-01-06T09:30:41;2.00;99.90
59660;DHT22;45534;52.690;6.268;2024-01-06T09:33:07;2.00;99.90
59660;DHT22;45534;52.690;6.268;2024-01-06T09:35:34;2.00;99.90
59660;DHT22;45534;52.690;6.268;2024-01-06T09:38:00;2.00;99.90
59660;DHT22;45534;52.690;6.268;2024-01-06T09:40:26;2.00;99.90
59660;DHT22;45534;52.690;6.268;2024-01-06T09:42:52;2.00;99.90
59660;DHT22;45534;52.690;6.268;2024-01-06T09:45:19;2.00;99.90
59660;DHT22;45534;52.690;6.268;2024-01-06T09:47:51;2.10;99.90
59660;DHT22;45534;52.690;6.268;2024-01-06T09:50:20;2.10;99.90
59660;DHT22;45534;52.690;6.268;2024-01-06T09:52:48;2.10;99.90
59660;DHT22;45534;52.690;6.268;2024-01-06T09:55:25;2.10;99.90
59660;DHT22;45534;52.690;6.268;2024-01-06T09:57:54;2.10;99.90
59660;DHT22;45534;52.690;6.268;2024-01-06T10:00:20;2.20;99.90
59660;DHT22;45534;52.690;6.268;2024-01-06T10:02:49;2.20;99.90
59660;DHT22;45534;52.690;6.268;2024-01-06T10:05:17;2.20;99.90
59660;DHT22;45534;52.690;6.268;2024-01-06T10:07:47;2.20;99.90
59660;DHT22;45534;52.690;6.268;2024-01-06T10:10:13;2.20;99.90
59660;DHT22;45534;52.690;6.268;2024-01-06T10:12:41;2.20;99.90
59660;DHT22;45534;52.690;6.268;2024-01-06T10:15:08;2.20;99.90
59660;DHT22;45534;52.690;6.268;2024-01-06T10:17:38;2.20;99.90
59660;DHT22;45534;52.690;6.268;2024-01-06T10:20:13;2.20;99.90
59660;DHT22;45534;52.690;6.268;2024-01-06T10:22:41;2.20;99.90
59660;DHT22;45534;52.690;6.268;2024-01-06T10:25:11;2.20;99.90
59660;DHT22;45534;52.690;6.268;2024-01-06T10:27:41;2.20;99.90
59660;DHT22;45534;52.690;6.268;2024-01-06T10:30:08;2.20;99.90
59660;DHT22;45534;52.690;6.268;2024-01-06T10:32:34;2.20;99.90
59660;DHT22;45534;52.690;6.268;2024-01-06T10:35:02;2.20;99.90
59660;DHT22;45534;52.690;6.268;2024-01-06T10:37:29;2.20;99.90
59660;DHT22;45534;52.690;6.268;2024-01-06T10:40:12;2.20;99.90
59660;DHT22;45534;52.690;6.268;2024-01-06T10:42:39;2.20;99.90
59660;DHT22;45534;52.690;6.268;2024-01-06T10:45:11;2.20;99.90
59660;DHT22;45534;52.690;6.268;2024-01-06T10:47:37;2.20;99.90
59660;DHT22;45534;52.690;6.268;2024-01-06T10:50:03;2.20;99.90
59660;DHT22;45534;52.690;6.268;2024-01-06T10:52:29;2.20;99.90
59660;DHT22;45534;52.690;6.268;2024-01-06T10:54:55;2.20;99.90
59660;DHT22;45534;52.690;6.268;2024-01-06T10:57:21;2.20;99.90
59660;DHT22;45534;52.690;6.268;2024-01-06T10:59:50;2.20;99.90
59660;DHT22;45534;52.690;6.268;2024-01-06T11:02:16;2.20;99.90
59660;DHT22;45534;52.690;6.268;2024-01-06T11:04:46;2.20;99.90
59660;DHT22;45534;52.690;6.268;2024-01-06T11:07:18;2.20;99.90
59660;DHT22;45534;52.690;6.268;2024-01-06T11:09:57;2.20;99.90
59660;DHT22;45534;52.690;6.268;2024-01-06T11:12:24;2.20;99.90
59660;DHT22;45534;52.690;6.268;2024-01-06T11:14:51;2.20;99.90
59660;DHT22;45534;52.690;6.268;2024-01-06T11:17:53;2.20;99.90
59660;DHT22;45534;52.690;6.268;2024-01-06T11:20:21;2.20;99.90
59660;DHT22;45534;52.690;6.268;2024-01-06T11:22:47;2.20;99.90
59660;DHT22;45534;52.690;6.268;2024-01-06T11:25:15;2.30;99.90
59660;DHT22;45534;52.690;6.268;2024-01-06T11:27:42;2.30;99.90
59660;DHT22;45534;52.690;6.268;2024-01-06T11:30:22;2.30;99.90
59660;DHT22;45534;52.690;6.268;2024-01-06T11:32:50;2.30;99.90
59660;DHT22;45534;52.690;6.268;2024-01-06T11:35:18;2.30;99.90
59660;DHT22;45534;52.690;6.268;2024-01-06T11:40:25;2.30;99.90
59660;DHT22;45534;52.690;6.268;2024-01-06T11:43:09;2.30;99.90
59660;DHT22;45534;52.690;6.268;2024-01-06T11:45:36;2.30;99.90
59660;DHT22;45534;52.690;6.268;2024-01-06T11:48:07;2.20;99.90
59660;DHT22;45534;52.690;6.268;2024-01-06T11:50:35;2.20;99.90
59660;DHT22;45534;52.690;6.268;2024-01-06T11:53:02;2.20;99.90
59660;DHT22;45534;52.690;6.268;2024-01-06T11:55:28;2.20;99.90
59660;DHT22;45534;52.690;6.268;2024-01-06T11:57:55;2.20;99.90
59660;DHT22;45534;52.690;6.268;2024-01-06T12:00:23;2.20;99.90
59660;DHT22;45534;52.690;6.268;2024-01-06T12:02:49;2.20;99.90
59660;DHT22;45534;52.690;6.268;2024-01-06T12:05:16;2.20;99.90
59660;DHT22;45534;52.690;6.268;2024-01-06T12:07:52;2.20;99.90
59660;DHT22;45534;52.690;6.268;2024-01-06T12:10:20;2.20;99.90
59660;DHT22;45534;52.690;6.268;2024-01-06T12:13:04;2.20;99.90
59660;DHT22;45534;52.690;6.268;2024-01-06T12:15:31;2.20;99.90
59660;DHT22;45534;52.690;6.268;2024-01-06T12:17:58;2.30;99.90
59660;DHT22;45534;52.690;6.268;2024-01-06T12:20:25;2.30;99.90
59660;DHT22;45534;52.690;6.268;2024-01-06T12:22:52;2.20;99.90
59660;DHT22;45534;52.690;6.268;2024-01-06T12:25:20;2.20;99.90
59660;DHT22;45534;52.690;6.268;2024-01-06T12:27:46;2.20;99.90
59660;DHT22;45534;52.690;6.268;2024-01-06T12:30:15;2.20;99.90
59660;DHT22;45534;52.690;6.268;2024-01-06T12:32:46;2.20;99.90
59660;DHT22;45534;52.690;6.268;2024-01-06T12:35:12;2.20;99.90
59660;DHT22;45534;52.690;6.268;2024-01-06T12:37:39;2.20;99.90
59660;DHT22;45534;52.690;6.268;2024-01-06T12:40:08;2.20;99.90
59660;DHT22;45534;52.690;6.268;2024-01-06T12:42:34;2.20;99.90
59660;DHT22;45534;52.690;6.268;2024-01-06T12:45:00;2.20;99.90
59660;DHT22;45534;52.690;6.268;2024-01-06T12:47:26;2.10;99.90
59660;DHT22;45534;52.690;6.268;2024-01-06T12:49:51;2.10;99.90
59660;DHT22;45534;52.690;6.268;2024-01-06T12:52:17;2.10;99.90
59660;DHT22;45534;52.690;6.268;2024-01-06T12:54:42;2.10;99.90
59660;DHT22;45534;52.690;6.268;2024-01-06T12:57:08;2.10;99.90
59660;DHT22;45534;52.690;6.268;2024-01-06T12:59:35;2.10;99.90
59660;DHT22;45534;52.690;6.268;2024-01-06T13:02:00;2.10;99.90
59660;DHT22;45534;52.690;6.268;2024-01-06T13:04:26;2.10;99.90
59660;DHT22;45534;52.690;6.268;2024-01-06T13:06:52;2.10;99.90
59660;DHT22;45534;52.690;6.268;2024-01-06T13:09:18;2.10;99.90
59660;DHT22;45534;52.690;6.268;2024-01-06T13:11:44;2.20;99.90
59660;DHT22;45534;52.690;6.268;2024-01-06T13:14:12;2.10;99.90
59660;DHT22;45534;52.690;6.268;2024-01-06T13:16:38;2.10;99.90
59660;DHT22;45534;52.690;6.268;2024-01-06T13:19:03;2.10;99.90
59660;DHT22;45534;52.690;6.268;2024-01-06T13:21:30;2.10;99.90
59660;DHT22;45534;52.690;6.268;2024-01-06T13:23:56;2.10;99.90
59660;DHT22;45534;52.690;6.268;2024-01-06T13:26:26;2.10;99.90
59660;DHT22;45534;52.690;6.268;2024-01-06T13:28:53;2.10;99.90
59660;DHT22;45534;52.690;6.268;2024-01-06T13:31:19;2.20;99.90
59660;DHT22;45534;52.690;6.268;2024-01-06T13:33:46;2.20;99.90
59660;DHT22;45534;52.690;6.268;2024-01-06T13:36:12;2.20;99.90
59660;DHT22;45534;52.690;6.268;2024-01-06T13:38:38;2.20;99.90
59660;DHT22;45534;52.690;6.268;2024-01-06T13:41:04;2.20;99.90
59660;DHT22;45534;52.690;6.268;2024-01-06T13:43:30;2.20;99.90
59660;DHT22;45534;52.690;6.268;2024-01-06T13:45:57;2.10;99.90
59660;DHT22;45534;52.690;6.268;2024-01-06T13:48:23;2.20;99.90
59660;DHT22;45534;52.690;6.268;2024-01-06T13:50:49;2.20;99.90
59660;DHT22;45534;52.690;6.268;2024-01-06T13:53:15;2.20;99.90
59660;DHT22;45534;52.690;6.268;2024-01-06T13:55:41;2.10;99.90
59660;DHT22;45534;52.690;6.268;2024-01-06T13:58:07;2.10;99.90
59660;DHT22;45534;52.690;6.268;2024-01-06T14:00:35;2.10;99.90
59660;DHT22;45534;52.690;6.268;2024-01-06T14:03:01;2.10;99.90
59660;DHT22;45534;52.690;6.268;2024-01-06T14:05:27;2.10;99.90
59660;DHT22;45534;52.690;6.268;2024-01-06T14:07:53;2.10;99.90
59660;DHT22;45534;52.690;6.268;2024-01-06T14:10:19;2.10;99.90
59660;DHT22;45534;52.690;6.268;2024-01-06T14:12:45;2.10;99.90
59660;DHT22;45534;52.690;6.268;2024-01-06T14:15:10;2.10;99.90
59660;DHT22;45534;52.690;6.268;2024-01-06T14:17:36;2.10;99.90
59660;DHT22;45534;52.690;6.268;2024-01-06T14:20:03;2.10;99.90
59660;DHT22;45534;52.690;6.268;2024-01-06T14:22:30;2.10;99.90
59660;DHT22;45534;52.690;6.268;2024-01-06T14:24:55;2.10;99.90
59660;DHT22;45534;52.690;6.268;2024-01-06T14:27:21;2.00;99.90
59660;DHT22;45534;52.690;6.268;2024-01-06T14:29:48;2.00;99.90
59660;DHT22;45534;52.690;6.268;2024-01-06T14:32:14;2.10;99.90
59660;DHT22;45534;52.690;6.268;2024-01-06T14:34:39;2.10;99.90
59660;DHT22;45534;52.690;6.268;2024-01-06T14:37:05;2.00;99.90
59660;DHT22;45534;52.690;6.268;2024-01-06T14:39:31;2.00;99.90
59660;DHT22;45534;52.690;6.268;2024-01-06T14:41:57;2.00;99.90
59660;DHT22;45534;52.690;6.268;2024-01-06T14:44:22;2.00;99.90
59660;DHT22;45534;52.690;6.268;2024-01-06T14:46:49;2.00;99.90
59660;DHT22;45534;52.690;6.268;2024-01-06T14:49:16;2.00;99.90
59660;DHT22;45534;52.690;6.268;2024-01-06T14:51:42;2.00;99.90
59660;DHT22;45534;52.690;6.268;2024-01-06T14:54:08;2.00;99.90
59660;DHT22;45534;52.690;6.268;2024-01-06T14:56:37;2.00;99.90
59660;DHT22;45534;52.690;6.268;2024-01-06T14:59:04;2.00;99.90
59660;DHT22;45534;52.690;6.268;2024-01-06T15:01:29;2.00;99.90
59660;DHT22;45534;52.690;6.268;2024-01-06T15:03:55;2.00;99.90
59660;DHT22;45534;52.690;6.268;2024-01-06T15:06:21;1.90;99.90
59660;DHT22;45534;52.690;6.268;2024-01-06T15:08:46;1.90;99.90
59660;DHT22;45534;52.690;6.268;2024-01-06T15:11:12;1.90;99.90
59660;DHT22;45534;52.690;6.268;2024-01-06T15:13:38;1.90;99.90
59660;DHT22;45534;52.690;6.268;2024-01-06T15:16:04;1.90;99.90
59660;DHT22;45534;52.690;6.268;2024-01-06T15:18:30;1.90;99.90
59660;DHT22;45534;52.690;6.268;2024-01-06T15:20:56;1.90;99.90
59660;DHT22;45534;52.690;6.268;2024-01-06T15:23:21;1.90;99.90
59660;DHT22;45534;52.690;6.268;2024-01-06T15:25:47;1.90;99.90
59660;DHT22;45534;52.690;6.268;2024-01-06T15:28:13;1.90;99.90
59660;DHT22;45534;52.690;6.268;2024-01-06T15:30:38;1.80;99.90
59660;DHT22;45534;52.690;6.268;2024-01-06T15:33:04;1.80;99.90
59660;DHT22;45534;52.690;6.268;2024-01-06T15:35:30;1.70;99.90
59660;DHT22;45534;52.690;6.268;2024-01-06T15:37:56;1.70;99.90
59660;DHT22;45534;52.690;6.268;2024-01-06T15:40:22;1.60;99.90
59660;DHT22;45534;52.690;6.268;2024-01-06T15:42:47;1.60;99.90